sensor_id;sensor_type;location;lat;lon;timestamp;temperature;humidity
61807;DHT22;47726;52.766;6.606;2023-03-23T00:02:22;11.40;99.90
61807;DHT22;47726;52.766;6.606;2023-03-23T00:04:48;11.40;99.90
61807;DHT22;47726;52.766;6.606;2023-03-23T00:07:14;11.40;99.90
61807;DHT22;47726;52.766;6.606;2023-03-23T00:09:50;11.40;99.90
61807;DHT22;47726;52.766;6.606;2023-03-23T00:12:30;11.40;99.90
61807;DHT22;47726;52.766;6.606;2023-03-23T00:15:03;11.40;99.90
61807;DHT22;47726;52.766;6.606;2023-03-23T00:17:31;11.40;99.90
61807;DHT22;47726;52.766;6.606;2023-03-23T00:19:58;11.30;99.90
61807;DHT22;47726;52.766;6.606;2023-03-23T00:22:27;11.40;99.90
61807;DHT22;47726;52.766;6.606;2023-03-23T00:24:53;11.40;99.90
61807;DHT22;47726;52.766;6.606;2023-03-23T00:27:20;11.40;99.90
61807;DHT22;47726;52.766;6.606;2023-03-23T00:29:50;11.40;99.90
61807;DHT22;47726;52.766;6.606;2023-03-23T00:32:21;11.40;99.90
61807;DHT22;47726;52.766;6.606;2023-03-23T00:34:53;11.40;99.90
61807;DHT22;47726;52.766;6.606;2023-03-23T00:37:18;11.40;99.90
61807;DHT22;47726;52.766;6.606;2023-03-23T00:39:44;11.40;99.90
61807;DHT22;47726;52.766;6.606;2023-03-23T00:42:13;11.40;99.90
61807;DHT22;47726;52.766;6.606;2023-03-23T00:44:39;11.40;99.90
61807;DHT22;47726;52.766;6.606;2023-03-23T00:47:05;11.40;99.90
61807;DHT22;47726;52.766;6.606;2023-03-23T00:49:34;11.40;99.90
61807;DHT22;47726;52.766;6.606;2023-03-23T00:52:02;11.40;99.90
61807;DHT22;47726;52.766;6.606;2023-03-23T00:54:28;11.40;99.90
61807;DHT22;47726;52.766;6.606;2023-03-23T00:56:54;11.40;99.90
61807;DHT22;47726;52.766;6.606;2023-03-23T00:59:21;11.40;99.90
61807;DHT22;47726;52.766;6.606;2023-03-23T01:01:48;11.40;99.90
61807;DHT22;47726;52.766;6.606;2023-03-23T01:04:14;11.50;99.90
61807;DHT22;47726;52.766;6.606;2023-03-23T01:06:42;11.50;99.90
61807;DHT22;47726;52.766;6.606;2023-03-23T01:09:11;11.40;99.90
61807;DHT22;47726;52.766;6.606;2023-03-23T01:11:43;11.40;99.90
61807;DHT22;47726;52.766;6.606;2023-03-23T01:14:09;11.40;99.90
61807;DHT22;47726;52.766;6.606;2023-03-23T01:16:35;11.40;99.90
61807;DHT22;47726;52.766;6.606;2023-03-23T01:19:01;11.50;99.90
61807;DHT22;47726;52.766;6.606;2023-03-23T01:21:26;11.50;99.90
61807;DHT22;47726;52.766;6.606;2023-03-23T01:23:53;11.50;99.90
61807;DHT22;47726;52.766;6.606;2023-03-23T01:26:24;11.50;99.90
61807;DHT22;47726;52.766;6.606;2023-03-23T01:28:50;11.50;99.90
61807;DHT22;47726;52.766;6.606;2023-03-23T01:31:18;11.50;99.90
61807;DHT22;47726;52.766;6.606;2023-03-23T01:33:44;11.40;99.90
61807;DHT22;47726;52.766;6.606;2023-03-23T01:36:13;11.40;99.90
61807;DHT22;47726;52.766;6.606;2023-03-23T01:38:40;11.40;99.90
61807;DHT22;47726;52.766;6.606;2023-03-23T01:41:06;11.40;99.90
61807;DHT22;47726;52.766;6.606;2023-03-23T01:43:32;11.40;99.90
61807;DHT22;47726;52.766;6.606;2023-03-23T01:45:58;11.40;99.90
61807;DHT22;47726;52.766;6.606;2023-03-23T01:48:28;11.40;99.90
61807;DHT22;47726;52.766;6.606;2023-03-23T01:50:58;11.40;99.90
61807;DHT22;47726;52.766;6.606;2023-03-23T01:53:35;11.40;99.90
61807;DHT22;47726;52.766;6.606;2023-03-23T01:56:02;11.40;99.90
61807;DHT22;47726;52.766;6.606;2023-03-23T01:58:31;11.40;99.90
61807;DHT22;47726;52.766;6.606;2023-03-23T02:00:59;11.40;99.90
61807;DHT22;47726;52.766;6.606;2023-03-23T02:03:28;11.40;99.90
61807;DHT22;47726;52.766;6.606;2023-03-23T02:05:57;11.40;99.90
61807;DHT22;47726;52.766;6.606;2023-03-23T02:08:25;11.40;99.90
61807;DHT22;47726;52.766;6.606;2023-03-23T02:10:52;11.40;99.90
61807;DHT22;47726;52.766;6.606;2023-03-23T02:13:17;11.40;99.90
61807;DHT22;47726;52.766;6.606;2023-03-23T02:16:04;11.40;99.90
61807;DHT22;47726;52.766;6.606;2023-03-23T02:21:42;11.40;99.90
61807;DHT22;47726;52.766;6.606;2023-03-23T02:26:59;11.40;99.90
61807;DHT22;47726;52.766;6.606;2023-03-23T02:32:11;11.40;99.90
61807;DHT22;47726;52.766;6.606;2023-03-23T02:37:12;11.40;99.90
61807;DHT22;47726;52.766;6.606;2023-03-23T02:39:49;11.40;99.90
61807;DHT22;47726;52.766;6.606;2023-03-23T02:42:20;11.40;99.90
61807;DHT22;47726;52.766;6.606;2023-03-23T02:44:49;11.40;99.90
61807;DHT22;47726;52.766;6.606;2023-03-23T02:47:21;11.40;99.90
61807;DHT22;47726;52.766;6.606;2023-03-23T02:49:50;11.30;99.90
61807;DHT22;47726;52.766;6.606;2023-03-23T02:52:20;11.40;99.90
61807;DHT22;47726;52.766;6.606;2023-03-23T02:54:48;11.30;99.90
61807;DHT22;47726;52.766;6.606;2023-03-23T02:57:14;11.30;99.90
61807;DHT22;47726;52.766;6.606;2023-03-23T02:59:41;11.30;99.90
61807;DHT22;47726;52.766;6.606;2023-03-23T03:02:12;11.30;99.90
61807;DHT22;47726;52.766;6.606;2023-03-23T03:04:41;11.30;99.90
61807;DHT22;47726;52.766;6.606;2023-03-23T03:07:17;11.30;99.90
61807;DHT22;47726;52.766;6.606;2023-03-23T03:10:02;11.30;99.90
61807;DHT22;47726;52.766;6.606;2023-03-23T03:12:34;11.40;99.90
61807;DHT22;47726;52.766;6.606;2023-03-23T03:15:12;11.30;99.90
61807;DHT22;47726;52.766;6.606;2023-03-23T03:18:05;11.40;99.90
61807;DHT22;47726;52.766;6.606;2023-03-23T03:20:35;11.30;99.90
61807;DHT22;47726;52.766;6.606;2023-03-23T03:23:02;11.30;99.90
61807;DHT22;47726;52.766;6.606;2023-03-23T03:25:29;11.40;99.90
61807;DHT22;47726;52.766;6.606;2023-03-23T03:27:56;11.30;99.90
61807;DHT22;47726;52.766;6.606;2023-03-23T03:30:26;11.30;99.90
61807;DHT22;47726;52.766;6.606;2023-03-23T03:32:53;11.40;99.90
61807;DHT22;47726;52.766;6.606;2023-03-23T03:35:23;11.40;99.90
61807;DHT22;47726;52.766;6.606;2023-03-23T03:37:50;11.40;99.90
61807;DHT22;47726;52.766;6.606;2023-03-23T03:40:19;11.30;99.90
61807;DHT22;47726;52.766;6.606;2023-03-23T03:42:45;11.40;99.90
61807;DHT22;47726;52.766;6.606;2023-03-23T03:45:14;11.40;99.90
61807;DHT22;47726;52.766;6.606;2023-03-23T03:47:40;11.40;99.90
61807;DHT22;47726;52.766;6.606;2023-03-23T03:50:06;11.40;99.90
61807;DHT22;47726;52.766;6.606;2023-03-23T03:52:33;11.40;99.90
61807;DHT22;47726;52.766;6.606;2023-03-23T03:54:58;11.40;99.90
61807;DHT22;47726;52.766;6.606;2023-03-23T03:57:24;11.50;99.90
61807;DHT22;47726;52.766;6.606;2023-03-23T03:59:50;11.40;99.90
61807;DHT22;47726;52.766;6.606;2023-03-23T04:02:16;11.50;99.90
61807;DHT22;47726;52.766;6.606;2023-03-23T04:04:47;11.50;99.90
61807;DHT22;47726;52.766;6.606;2023-03-23T04:07:13;11.50;99.90
61807;DHT22;47726;52.766;6.606;2023-03-23T04:09:40;11.50;99.90
61807;DHT22;47726;52.766;6.606;2023-03-23T04:12:06;11.40;99.90
61807;DHT22;47726;52.766;6.606;2023-03-23T04:14:32;11.50;99.90
61807;DHT22;47726;52.766;6.606;2023-03-23T04:16:57;11.50;99.90
61807;DHT22;47726;52.766;6.606;2023-03-23T04:19:24;11.50;99.90
61807;DHT22;47726;52.766;6.606;2023-03-23T04:21:50;11.50;99.90
61807;DHT22;47726;52.766;6.606;2023-03-23T04:24:16;11.50;99.90
61807;DHT22;47726;52.766;6.606;2023-03-23T04:26:41;11.50;99.90
61807;DHT22;47726;52.766;6.606;2023-03-23T04:29:08;11.60;99.90
61807;DHT22;47726;52.766;6.606;2023-03-23T04:31:34;11.60;99.90
61807;DHT22;47726;52.766;6.606;2023-03-23T04:34:01;11.60;99.90
61807;DHT22;47726;52.766;6.606;2023-03-23T04:36:27;11.60;99.90
61807;DHT22;47726;52.766;6.606;2023-03-23T04:38:54;11.60;99.90
61807;DHT22;47726;52.766;6.606;2023-03-23T04:41:22;11.60;99.90
61807;DHT22;47726;52.766;6.606;2023-03-23T04:43:48;11.60;99.90
61807;DHT22;47726;52.766;6.606;2023-03-23T04:46:18;11.60;99.90
61807;DHT22;47726;52.766;6.606;2023-03-23T04:48:45;11.60;99.90
61807;DHT22;47726;52.766;6.606;2023-03-23T04:51:11;11.60;99.90
61807;DHT22;47726;52.766;6.606;2023-03-23T04:53:37;11.70;99.90
61807;DHT22;47726;52.766;6.606;2023-03-23T04:56:04;11.70;99.90
61807;DHT22;47726;52.766;6.606;2023-03-23T04:58:29;11.70;99.90
61807;DHT22;47726;52.766;6.606;2023-03-23T05:00:59;11.70;99.90
61807;DHT22;47726;52.766;6.606;2023-03-23T05:03:25;11.60;99.90
61807;DHT22;47726;52.766;6.606;2023-03-23T05:05:52;11.60;99.90
61807;DHT22;47726;52.766;6.606;2023-03-23T05:08:24;11.60;99.90
61807;DHT22;47726;52.766;6.606;2023-03-23T05:10:51;11.50;99.90
61807;DHT22;47726;52.766;6.606;2023-03-23T05:13:17;11.50;99.90
61807;DHT22;47726;52.766;6.606;2023-03-23T05:15:43;11.40;99.90
61807;DHT22;47726;52.766;6.606;2023-03-23T05:18:09;11.40;99.90
61807;DHT22;47726;52.766;6.606;2023-03-23T05:20:36;11.30;99.90
61807;DHT22;47726;52.766;6.606;2023-03-23T05:23:02;11.20;99.90
61807;DHT22;47726;52.766;6.606;2023-03-23T05:25:28;11.20;99.90
61807;DHT22;47726;52.766;6.606;2023-03-23T05:27:53;11.20;99.90
61807;DHT22;47726;52.766;6.606;2023-03-23T05:30:20;11.20;99.90
61807;DHT22;47726;52.766;6.606;2023-03-23T05:32:47;11.10;99.90
61807;DHT22;47726;52.766;6.606;2023-03-23T05:35:16;11.10;99.90
61807;DHT22;47726;52.766;6.606;2023-03-23T05:37:42;11.10;99.90
61807;DHT22;47726;52.766;6.606;2023-03-23T05:40:09;11.10;99.90
61807;DHT22;47726;52.766;6.606;2023-03-23T05:42:38;11.10;99.90
61807;DHT22;47726;52.766;6.606;2023-03-23T05:45:06;11.10;99.90
61807;DHT22;47726;52.766;6.606;2023-03-23T05:47:32;11.10;99.90
61807;DHT22;47726;52.766;6.606;2023-03-23T05:49:57;11.10;99.90
61807;DHT22;47726;52.766;6.606;2023-03-23T05:52:24;11.10;99.90
61807;DHT22;47726;52.766;6.606;2023-03-23T05:54:50;11.20;99.90
61807;DHT22;47726;52.766;6.606;2023-03-23T05:57:16;11.20;99.90
61807;DHT22;47726;52.766;6.606;2023-03-23T05:59:42;11.10;99.90
61807;DHT22;47726;52.766;6.606;2023-03-23T06:02:08;11.10;99.90
61807;DHT22;47726;52.766;6.606;2023-03-23T06:04:35;11.10;99.90
61807;DHT22;47726;52.766;6.606;2023-03-23T06:07:03;11.10;99.90
61807;DHT22;47726;52.766;6.606;2023-03-23T06:09:29;11.10;99.90
61807;DHT22;47726;52.766;6.606;2023-03-23T06:11:56;11.10;99.90
61807;DHT22;47726;52.766;6.606;2023-03-23T06:14:22;11.10;99.90
61807;DHT22;47726;52.766;6.606;2023-03-23T06:16:48;11.00;99.90
61807;DHT22;47726;52.766;6.606;2023-03-23T06:19:14;11.00;99.90
61807;DHT22;47726;52.766;6.606;2023-03-23T06:21:41;11.00;99.90
61807;DHT22;47726;52.766;6.606;2023-03-23T06:24:07;11.00;99.90
61807;DHT22;47726;52.766;6.606;2023-03-23T06:26:38;11.00;99.90
61807;DHT22;47726;52.766;6.606;2023-03-23T06:29:07;11.00;99.90
61807;DHT22;47726;52.766;6.606;2023-03-23T06:31:44;11.00;99.90
61807;DHT22;47726;52.766;6.606;2023-03-23T06:34:10;11.00;99.90
61807;DHT22;47726;52.766;6.606;2023-03-23T06:36:37;11.00;99.90
61807;DHT22;47726;52.766;6.606;2023-03-23T06:39:04;11.00;99.90
61807;DHT22;47726;52.766;6.606;2023-03-23T06:41:33;11.00;99.90
61807;DHT22;47726;52.766;6.606;2023-03-23T06:44:00;11.00;99.90
61807;DHT22;47726;52.766;6.606;2023-03-23T06:46:26;11.00;99.90
61807;DHT22;47726;52.766;6.606;2023-03-23T06:48:52;11.00;99.90
61807;DHT22;47726;52.766;6.606;2023-03-23T06:51:18;11.00;99.90
61807;DHT22;47726;52.766;6.606;2023-03-23T06:53:44;11.00;99.90
61807;DHT22;47726;52.766;6.606;2023-03-23T06:56:10;11.00;99.90
61807;DHT22;47726;52.766;6.606;2023-03-23T06:58:37;11.00;99.90
61807;DHT22;47726;52.766;6.606;2023-03-23T07:01:03;11.00;99.90
61807;DHT22;47726;52.766;6.606;2023-03-23T07:03:29;11.00;99.90
61807;DHT22;47726;52.766;6.606;2023-03-23T07:05:56;11.10;99.90
61807;DHT22;47726;52.766;6.606;2023-03-23T07:08:22;11.00;99.90
61807;DHT22;47726;52.766;6.606;2023-03-23T07:10:50;11.00;99.90
61807;DHT22;47726;52.766;6.606;2023-03-23T07:13:18;11.10;99.90
61807;DHT22;47726;52.766;6.606;2023-03-23T07:15:43;11.00;99.90
61807;DHT22;47726;52.766;6.606;2023-03-23T07:18:09;11.10;99.90
61807;DHT22;47726;52.766;6.606;2023-03-23T07:20:35;11.10;99.90
61807;DHT22;47726;52.766;6.606;2023-03-23T07:23:01;11.10;99.90
61807;DHT22;47726;52.766;6.606;2023-03-23T07:25:27;11.10;99.90
61807;DHT22;47726;52.766;6.606;2023-03-23T07:27:53;11.10;99.90
61807;DHT22;47726;52.766;6.606;2023-03-23T07:30:18;11.10;99.90
61807;DHT22;47726;52.766;6.606;2023-03-23T07:32:45;11.10;99.90
61807;DHT22;47726;52.766;6.606;2023-03-23T07:35:11;11.20;99.90
61807;DHT22;47726;52.766;6.606;2023-03-23T07:37:36;11.10;99.90
61807;DHT22;47726;52.766;6.606;2023-03-23T07:40:04;11.20;99.90
61807;DHT22;47726;52.766;6.606;2023-03-23T07:42:33;11.20;99.90
61807;DHT22;47726;52.766;6.606;2023-03-23T07:44:59;11.30;99.90
61807;DHT22;47726;52.766;6.606;2023-03-23T07:47:25;11.40;99.90
61807;DHT22;47726;52.766;6.606;2023-03-23T07:49:51;11.30;99.90
61807;DHT22;47726;52.766;6.606;2023-03-23T07:52:17;11.40;99.90
61807;DHT22;47726;52.766;6.606;2023-03-23T07:54:43;11.40;99.90
61807;DHT22;47726;52.766;6.606;2023-03-23T07:57:08;11.40;99.90
61807;DHT22;47726;52.766;6.606;2023-03-23T07:59:34;11.40;99.90
61807;DHT22;47726;52.766;6.606;2023-03-23T08:02:00;11.40;99.90
61807;DHT22;47726;52.766;6.606;2023-03-23T08:04:26;11.50;99.90
61807;DHT22;47726;52.766;6.606;2023-03-23T08:06:52;11.50;99.90
61807;DHT22;47726;52.766;6.606;2023-03-23T08:09:18;11.60;99.90
61807;DHT22;47726;52.766;6.606;2023-03-23T08:11:43;11.60;99.90
61807;DHT22;47726;52.766;6.606;2023-03-23T08:14:09;11.60;99.90
61807;DHT22;47726;52.766;6.606;2023-03-23T08:16:35;11.60;99.90
61807;DHT22;47726;52.766;6.606;2023-03-23T08:19:01;11.60;99.90
61807;DHT22;47726;52.766;6.606;2023-03-23T08:21:27;11.60;99.90
61807;DHT22;47726;52.766;6.606;2023-03-23T08:23:53;11.60;99.90
61807;DHT22;47726;52.766;6.606;2023-03-23T08:26:19;11.60;99.90
61807;DHT22;47726;52.766;6.606;2023-03-23T08:28:45;11.70;99.90
61807;DHT22;47726;52.766;6.606;2023-03-23T08:31:13;11.70;99.90
61807;DHT22;47726;52.766;6.606;2023-03-23T08:33:40;11.70;99.90
61807;DHT22;47726;52.766;6.606;2023-03-23T08:36:07;11.70;99.90
61807;DHT22;47726;52.766;6.606;2023-03-23T08:38:34;11.70;99.90
61807;DHT22;47726;52.766;6.606;2023-03-23T08:41:05;11.60;99.90
61807;DHT22;47726;52.766;6.606;2023-03-23T08:43:32;11.60;99.90
61807;DHT22;47726;52.766;6.606;2023-03-23T08:45:58;11.60;99.90
61807;DHT22;47726;52.766;6.606;2023-03-23T08:48:24;11.60;99.90
61807;DHT22;47726;52.766;6.606;2023-03-23T08:50:50;11.60;99.90
61807;DHT22;47726;52.766;6.606;2023-03-23T08:53:18;11.60;99.90
61807;DHT22;47726;52.766;6.606;2023-03-23T08:55:44;11.60;99.90
61807;DHT22;47726;52.766;6.606;2023-03-23T08:58:10;11.60;99.90
61807;DHT22;47726;52.766;6.606;2023-03-23T09:00:35;11.70;99.90
61807;DHT22;47726;52.766;6.606;2023-03-23T09:03:01;11.70;99.90
61807;DHT22;47726;52.766;6.606;2023-03-23T09:05:28;11.70;99.90
61807;DHT22;47726;52.766;6.606;2023-03-23T09:07:56;11.80;99.90
61807;DHT22;47726;52.766;6.606;2023-03-23T09:10:25;11.90;99.90
61807;DHT22;47726;52.766;6.606;2023-03-23T09:12:52;11.90;99.90
61807;DHT22;47726;52.766;6.606;2023-03-23T09:15:18;12.00;99.90
61807;DHT22;47726;52.766;6.606;2023-03-23T09:17:47;12.00;99.90
61807;DHT22;47726;52.766;6.606;2023-03-23T09:20:16;12.00;99.90
61807;DHT22;47726;52.766;6.606;2023-03-23T09:22:45;12.00;99.90
61807;DHT22;47726;52.766;6.606;2023-03-23T09:25:13;12.00;99.90
61807;DHT22;47726;52.766;6.606;2023-03-23T09:27:41;12.00;99.90
61807;DHT22;47726;52.766;6.606;2023-03-23T09:30:09;12.00;99.90
61807;DHT22;47726;52.766;6.606;2023-03-23T09:32:36;12.00;99.90
61807;DHT22;47726;52.766;6.606;2023-03-23T09:35:02;12.00;99.90
61807;DHT22;47726;52.766;6.606;2023-03-23T09:37:29;12.00;99.90
61807;DHT22;47726;52.766;6.606;2023-03-23T09:39:55;12.10;99.90
61807;DHT22;47726;52.766;6.606;2023-03-23T09:42:33;12.30;99.90
61807;DHT22;47726;52.766;6.606;2023-03-23T09:45:25;12.50;99.90
61807;DHT22;47726;52.766;6.606;2023-03-23T09:50:52;12.80;99.90
61807;DHT22;47726;52.766;6.606;2023-03-23T09:53:29;13.00;99.90
61807;DHT22;47726;52.766;6.606;2023-03-23T09:56:05;13.10;99.90
61807;DHT22;47726;52.766;6.606;2023-03-23T09:58:40;13.10;99.90
61807;DHT22;47726;52.766;6.606;2023-03-23T10:01:27;13.20;99.90
61807;DHT22;47726;52.766;6.606;2023-03-23T10:04:01;13.40;99.90
61807;DHT22;47726;52.766;6.606;2023-03-23T10:06:27;13.60;99.90
61807;DHT22;47726;52.766;6.606;2023-03-23T10:08:56;13.70;99.90
61807;DHT22;47726;52.766;6.606;2023-03-23T10:14:37;14.00;99.90
61807;DHT22;47726;52.766;6.606;2023-03-23T10:17:22;14.10;99.90
61807;DHT22;47726;52.766;6.606;2023-03-23T10:23:34;14.40;99.90
61807;DHT22;47726;52.766;6.606;2023-03-23T10:26:17;14.20;99.90
61807;DHT22;47726;52.766;6.606;2023-03-23T10:28:47;13.90;99.90
61807;DHT22;47726;52.766;6.606;2023-03-23T10:31:20;13.60;99.90
61807;DHT22;47726;52.766;6.606;2023-03-23T10:33:49;13.60;99.90
61807;DHT22;47726;52.766;6.606;2023-03-23T10:36:21;13.80;99.90
61807;DHT22;47726;52.766;6.606;2023-03-23T10:41:22;14.00;99.90
61807;DHT22;47726;52.766;6.606;2023-03-23T10:43:48;13.90;99.90
61807;DHT22;47726;52.766;6.606;2023-03-23T10:46:25;13.80;99.90
61807;DHT22;47726;52.766;6.606;2023-03-23T10:48:52;13.80;99.90
61807;DHT22;47726;52.766;6.606;2023-03-23T10:51:22;13.80;99.90
61807;DHT22;47726;52.766;6.606;2023-03-23T10:53:55;14.00;99.90
61807;DHT22;47726;52.766;6.606;2023-03-23T10:56:28;14.20;99.90
61807;DHT22;47726;52.766;6.606;2023-03-23T10:58:55;14.30;99.90
61807;DHT22;47726;52.766;6.606;2023-03-23T11:01:33;14.40;99.90
61807;DHT22;47726;52.766;6.606;2023-03-23T11:04:00;14.50;99.90
61807;DHT22;47726;52.766;6.606;2023-03-23T11:06:30;14.60;99.90
61807;DHT22;47726;52.766;6.606;2023-03-23T11:09:03;14.70;99.90
61807;DHT22;47726;52.766;6.606;2023-03-23T11:11:31;14.80;99.90
61807;DHT22;47726;52.766;6.606;2023-03-23T11:14:47;14.70;99.90
61807;DHT22;47726;52.766;6.606;2023-03-23T11:16:59;14.70;99.90
61807;DHT22;47726;52.766;6.606;2023-03-23T11:19:28;14.70;99.90
61807;DHT22;47726;52.766;6.606;2023-03-23T11:22:13;14.70;99.90
61807;DHT22;47726;52.766;6.606;2023-03-23T11:24:45;14.50;99.90
61807;DHT22;47726;52.766;6.606;2023-03-23T11:27:14;14.30;99.90
61807;DHT22;47726;52.766;6.606;2023-03-23T11:30:07;14.20;99.90
61807;DHT22;47726;52.766;6.606;2023-03-23T11:32:34;14.20;99.90
61807;DHT22;47726;52.766;6.606;2023-03-23T11:35:04;14.10;99.90
61807;DHT22;47726;52.766;6.606;2023-03-23T11:50:25;14.80;99.90
61807;DHT22;47726;52.766;6.606;2023-03-23T11:53:13;14.80;99.90
61807;DHT22;47726;52.766;6.606;2023-03-23T11:58:17;14.80;99.90
61807;DHT22;47726;52.766;6.606;2023-03-23T12:00:56;14.90;99.90
61807;DHT22;47726;52.766;6.606;2023-03-23T12:03:52;15.10;99.90
61807;DHT22;47726;52.766;6.606;2023-03-23T12:11:39;15.70;99.90
61807;DHT22;47726;52.766;6.606;2023-03-23T12:17:00;15.70;99.90
61807;DHT22;47726;52.766;6.606;2023-03-23T12:25:00;15.80;99.90
61807;DHT22;47726;52.766;6.606;2023-03-23T12:33:46;15.70;99.90
61807;DHT22;47726;52.766;6.606;2023-03-23T12:44:05;15.70;99.90
61807;DHT22;47726;52.766;6.606;2023-03-23T12:49:02;15.50;99.90
61807;DHT22;47726;52.766;6.606;2023-03-23T12:51:39;15.40;99.90
61807;DHT22;47726;52.766;6.606;2023-03-23T12:54:29;15.30;99.90
61807;DHT22;47726;52.766;6.606;2023-03-23T12:57:18;15.20;99.90
61807;DHT22;47726;52.766;6.606;2023-03-23T13:02:23;15.10;99.90
61807;DHT22;47726;52.766;6.606;2023-03-23T13:07:33;15.50;99.90
61807;DHT22;47726;52.766;6.606;2023-03-23T13:12:30;15.70;99.90
61807;DHT22;47726;52.766;6.606;2023-03-23T13:25:49;15.80;99.90
61807;DHT22;47726;52.766;6.606;2023-03-23T13:28:20;15.80;99.90
61807;DHT22;47726;52.766;6.606;2023-03-23T13:31:04;15.80;99.90
61807;DHT22;47726;52.766;6.606;2023-03-23T13:33:36;15.80;99.90
61807;DHT22;47726;52.766;6.606;2023-03-23T13:36:10;15.80;99.90
61807;DHT22;47726;52.766;6.606;2023-03-23T13:38:37;15.80;99.90
61807;DHT22;47726;52.766;6.606;2023-03-23T13:41:09;15.70;99.90
61807;DHT22;47726;52.766;6.606;2023-03-23T13:43:37;15.80;99.90
61807;DHT22;47726;52.766;6.606;2023-03-23T13:46:25;15.80;99.90
61807;DHT22;47726;52.766;6.606;2023-03-23T13:49:19;15.70;99.90
61807;DHT22;47726;52.766;6.606;2023-03-23T13:51:53;15.50;99.90
61807;DHT22;47726;52.766;6.606;2023-03-23T13:56:57;15.40;99.90
61807;DHT22;47726;52.766;6.606;2023-03-23T14:01:53;15.20;99.90
61807;DHT22;47726;52.766;6.606;2023-03-23T14:04:21;15.20;99.90
61807;DHT22;47726;52.766;6.606;2023-03-23T14:06:49;15.20;99.90
61807;DHT22;47726;52.766;6.606;2023-03-23T14:09:26;15.10;99.90
61807;DHT22;47726;52.766;6.606;2023-03-23T14:12:01;15.00;99.90
61807;DHT22;47726;52.766;6.606;2023-03-23T14:14:43;15.00;99.90
61807;DHT22;47726;52.766;6.606;2023-03-23T14:17:24;14.90;99.90
61807;DHT22;47726;52.766;6.606;2023-03-23T14:19:54;14.80;99.90
61807;DHT22;47726;52.766;6.606;2023-03-23T14:22:35;14.80;99.90
61807;DHT22;47726;52.766;6.606;2023-03-23T14:25:10;14.80;99.90
61807;DHT22;47726;52.766;6.606;2023-03-23T14:27:36;14.80;99.90
61807;DHT22;47726;52.766;6.606;2023-03-23T14:30:06;14.70;99.90
61807;DHT22;47726;52.766;6.606;2023-03-23T14:32:33;14.60;99.90
61807;DHT22;47726;52.766;6.606;2023-03-23T14:35:04;14.60;99.90
61807;DHT22;47726;52.766;6.606;2023-03-23T14:37:31;14.50;99.90
61807;DHT22;47726;52.766;6.606;2023-03-23T14:39:58;14.50;99.90
61807;DHT22;47726;52.766;6.606;2023-03-23T14:42:30;14.40;99.90
61807;DHT22;47726;52.766;6.606;2023-03-23T14:44:56;14.40;99.90
61807;DHT22;47726;52.766;6.606;2023-03-23T14:47:26;14.40;99.90
61807;DHT22;47726;52.766;6.606;2023-03-23T14:49:58;14.50;99.90
61807;DHT22;47726;52.766;6.606;2023-03-23T14:52:35;14.60;99.90
61807;DHT22;47726;52.766;6.606;2023-03-23T14:55:27;14.60;99.90
61807;DHT22;47726;52.766;6.606;2023-03-23T14:58:06;14.60;99.90
61807;DHT22;47726;52.766;6.606;2023-03-23T15:00:43;14.70;99.90
61807;DHT22;47726;52.766;6.606;2023-03-23T15:03:16;14.70;99.90
61807;DHT22;47726;52.766;6.606;2023-03-23T15:05:49;14.70;99.90
61807;DHT22;47726;52.766;6.606;2023-03-23T15:08:27;14.70;99.90
61807;DHT22;47726;52.766;6.606;2023-03-23T15:13:35;14.80;99.90
61807;DHT22;47726;52.766;6.606;2023-03-23T15:16:14;14.80;99.90
61807;DHT22;47726;52.766;6.606;2023-03-23T15:18:40;14.80;99.90
61807;DHT22;47726;52.766;6.606;2023-03-23T15:21:19;14.80;99.90
61807;DHT22;47726;52.766;6.606;2023-03-23T15:23:46;14.80;99.90
61807;DHT22;47726;52.766;6.606;2023-03-23T15:26:42;14.80;99.90
61807;DHT22;47726;52.766;6.606;2023-03-23T15:31:38;14.70;99.90
61807;DHT22;47726;52.766;6.606;2023-03-23T15:34:04;14.70;99.90
61807;DHT22;47726;52.766;6.606;2023-03-23T15:36:34;14.70;99.90
61807;DHT22;47726;52.766;6.606;2023-03-23T15:39:00;14.70;99.90
61807;DHT22;47726;52.766;6.606;2023-03-23T15:41:28;14.60;99.90
61807;DHT22;47726;52.766;6.606;2023-03-23T15:43:57;14.60;99.90
61807;DHT22;47726;52.766;6.606;2023-03-23T15:46:25;14.50;99.90
61807;DHT22;47726;52.766;6.606;2023-03-23T15:48:53;14.50;99.90
61807;DHT22;47726;52.766;6.606;2023-03-23T15:51:28;14.50;99.90
61807;DHT22;47726;52.766;6.606;2023-03-23T15:53:55;14.60;99.90
61807;DHT22;47726;52.766;6.606;2023-03-23T15:56:21;14.50;99.90
61807;DHT22;47726;52.766;6.606;2023-03-23T15:58:48;14.60;99.90
61807;DHT22;47726;52.766;6.606;2023-03-23T16:01:17;14.50;99.90
61807;DHT22;47726;52.766;6.606;2023-03-23T16:03:50;14.50;99.90
61807;DHT22;47726;52.766;6.606;2023-03-23T16:06:18;14.50;99.90
61807;DHT22;47726;52.766;6.606;2023-03-23T16:08:44;14.50;99.90
61807;DHT22;47726;52.766;6.606;2023-03-23T16:11:12;14.50;99.90
61807;DHT22;47726;52.766;6.606;2023-03-23T16:13:38;14.50;99.90
61807;DHT22;47726;52.766;6.606;2023-03-23T16:16:05;14.40;99.90
61807;DHT22;47726;52.766;6.606;2023-03-23T16:18:32;14.30;99.90
61807;DHT22;47726;52.766;6.606;2023-03-23T16:20:58;14.20;99.90
61807;DHT22;47726;52.766;6.606;2023-03-23T16:23:24;14.20;99.90
61807;DHT22;47726;52.766;6.606;2023-03-23T16:25:49;14.20;99.90
61807;DHT22;47726;52.766;6.606;2023-03-23T16:28:15;14.10;99.90
61807;DHT22;47726;52.766;6.606;2023-03-23T16:30:42;14.10;99.90
61807;DHT22;47726;52.766;6.606;2023-03-23T16:33:08;14.00;99.90
61807;DHT22;47726;52.766;6.606;2023-03-23T16:35:35;14.00;99.90
61807;DHT22;47726;52.766;6.606;2023-03-23T16:38:01;14.00;99.90
61807;DHT22;47726;52.766;6.606;2023-03-23T16:40:26;14.00;99.90
61807;DHT22;47726;52.766;6.606;2023-03-23T16:42:52;14.00;99.90
61807;DHT22;47726;52.766;6.606;2023-03-23T16:45:18;14.00;99.90
61807;DHT22;47726;52.766;6.606;2023-03-23T16:47:45;13.90;99.90
61807;DHT22;47726;52.766;6.606;2023-03-23T16:50:14;13.90;99.90
61807;DHT22;47726;52.766;6.606;2023-03-23T16:52:41;13.90;99.90
61807;DHT22;47726;52.766;6.606;2023-03-23T16:55:09;13.90;99.90
61807;DHT22;47726;52.766;6.606;2023-03-23T16:57:35;13.90;99.90
61807;DHT22;47726;52.766;6.606;2023-03-23T17:00:06;13.80;99.90
61807;DHT22;47726;52.766;6.606;2023-03-23T17:02:34;13.70;99.90
61807;DHT22;47726;52.766;6.606;2023-03-23T17:05:00;13.70;99.90
61807;DHT22;47726;52.766;6.606;2023-03-23T17:07:26;13.60;99.90
61807;DHT22;47726;52.766;6.606;2023-03-23T17:09:52;13.50;99.90
61807;DHT22;47726;52.766;6.606;2023-03-23T17:12:18;13.50;99.90
61807;DHT22;47726;52.766;6.606;2023-03-23T17:14:43;13.40;99.90
61807;DHT22;47726;52.766;6.606;2023-03-23T17:17:09;13.40;99.90
61807;DHT22;47726;52.766;6.606;2023-03-23T17:19:35;13.40;99.90
61807;DHT22;47726;52.766;6.606;2023-03-23T17:22:01;13.30;99.90